createdAt,value
2022-12-18T15:05:05.168Z,-6.50
2022-12-18T15:08:33.170Z,-6.31
2022-12-18T15:11:47.458Z,-6.38
2022-12-18T15:14:51.150Z,-6.42
2022-12-18T15:18:07.657Z,-6.57
2022-12-18T15:21:18.457Z,-6.53
2022-12-18T15:24:29.286Z,-6.45
2022-12-18T15:27:36.635Z,-6.45
2022-12-18T15:30:40.531Z,-6.51
2022-12-18T15:33:47.109Z,-6.34
2022-12-18T15:36:53.990Z,-6.45
2022-12-18T15:39:57.826Z,-6.39
2022-12-18T15:43:18.783Z,-6.38
2022-12-18T15:46:25.611Z,-6.32
2022-12-18T15:49:29.517Z,-6.51
2022-12-18T15:52:43.330Z,-6.43
2022-12-18T15:56:04.954Z,-6.45
2022-12-18T15:59:13.086Z,-6.24
2022-12-18T16:02:20.079Z,-6.20
2022-12-18T16:05:25.076Z,-6.57
2022-12-18T16:08:30.855Z,-6.12
2022-12-18T16:11:43.003Z,-6.11
2022-12-18T16:14:48.370Z,-6.08
2022-12-18T16:17:53.600Z,-6.20
2022-12-18T16:20:57.495Z,-6.15
2022-12-18T16:24:02.777Z,-6.29
2022-12-18T16:27:06.569Z,-6.00
2022-12-18T16:30:15.279Z,-6.18
2022-12-18T16:33:19.083Z,-5.97
2022-12-18T16:36:22.995Z,-6.09
2022-12-18T16:39:28.816Z,-5.88
2022-12-18T16:42:32.661Z,-5.77
2022-12-18T16:45:36.495Z,-6.06
2022-12-18T16:48:40.232Z,-6.06
2022-12-18T16:51:48.166Z,-6.13
2022-12-18T16:54:53.355Z,-6.14
2022-12-18T16:57:57.107Z,-6.11
2022-12-18T17:01:01.028Z,-5.89
2022-12-18T17:04:07.793Z,-6.09
2022-12-18T17:07:11.984Z,-6.19
2022-12-18T17:10:17.295Z,-5.96
2022-12-18T17:13:28.207Z,-6.06
2022-12-18T17:16:32.012Z,-6.05
2022-12-18T17:19:36.791Z,-6.12
2022-12-18T17:22:40.600Z,-6.19
2022-12-18T17:25:46.503Z,-6.10
2022-12-18T17:28:50.239Z,-6.08
2022-12-18T17:31:53.969Z,-6.27
2022-12-18T17:35:02.606Z,-6.10
2022-12-18T17:38:09.480Z,-6.04
2022-12-18T17:41:15.356Z,-6.05
2022-12-18T17:44:19.852Z,-5.97
2022-12-18T17:47:23.655Z,-6.05
2022-12-18T17:50:27.815Z,-5.82
2022-12-18T17:53:31.717Z,-5.96
2022-12-18T17:56:36.959Z,-5.73
2022-12-18T17:59:41.488Z,-5.88
2022-12-18T18:02:45.370Z,-5.93
2022-12-18T18:05:49.257Z,-5.97
2022-12-18T18:08:54.566Z,-6.12
2022-12-18T18:12:17.636Z,-6.16
2022-12-18T18:15:21.523Z,-6.10
2022-12-18T18:18:25.485Z,-6.05
2022-12-18T18:21:30.060Z,-6.01
2022-12-18T18:24:35.102Z,-6.14
2022-12-18T18:27:40.538Z,-6.15
2022-12-18T18:30:44.382Z,-6.08
2022-12-18T18:33:48.398Z,-6.01
2022-12-18T18:36:52.505Z,-6.16
2022-12-18T18:39:56.918Z,-6.15
2022-12-18T18:43:02.283Z,-6.22
2022-12-18T18:46:08.092Z,-6.16
2022-12-18T18:49:11.956Z,-6.09
2022-12-18T18:52:16.651Z,-6.03
2022-12-18T18:55:25.536Z,-6.08
2022-12-18T18:58:31.510Z,-6.01
2022-12-18T19:01:35.359Z,-6.11
2022-12-18T19:04:45.731Z,-6.09
2022-12-18T19:07:49.619Z,-5.94
2022-12-18T19:10:57.655Z,-6.04
2022-12-18T19:14:04.518Z,-5.86
2022-12-18T19:17:09.346Z,-5.96
2022-12-18T19:20:13.405Z,-6.19
2022-12-18T19:23:17.211Z,-6.15
2022-12-18T19:26:28.008Z,-6.07
2022-12-18T19:29:34.487Z,-5.95
2022-12-18T19:32:40.590Z,-5.92
2022-12-18T19:35:44.334Z,-5.99
2022-12-18T19:38:49.012Z,-5.86
2022-12-18T19:41:52.957Z,-5.97
2022-12-18T19:44:59.466Z,-6.01
2022-12-18T19:48:04.548Z,-5.95
2022-12-18T19:51:10.283Z,-6.01
2022-12-18T19:54:16.993Z,-6.03
2022-12-18T19:57:21.532Z,-6.21
2022-12-18T20:00:26.599Z,-6.09
2022-12-18T20:03:32.753Z,-6.24
2022-12-18T20:06:46.536Z,-5.88
2022-12-18T20:09:57.125Z,-6.17
2022-12-18T20:13:06.371Z,-6.12
2022-12-18T20:16:12.406Z,-6.19
2022-12-18T20:19:16.291Z,-5.91
2022-12-18T20:22:20.088Z,-6.14
2022-12-18T20:25:23.776Z,-6.01
2022-12-18T20:28:27.595Z,-5.95
2022-12-18T20:31:32.866Z,-5.91
2022-12-18T20:34:36.802Z,-5.91
2022-12-18T20:37:43.825Z,-5.83
2022-12-18T20:40:52.524Z,-5.96
2022-12-18T20:43:56.223Z,-6.11
2022-12-18T20:47:04.942Z,-5.74
2022-12-18T20:50:12.608Z,-5.72
2022-12-18T20:53:16.319Z,-5.66
2022-12-18T20:56:23.076Z,-5.93
2022-12-18T20:59:27.083Z,-5.76
2022-12-18T21:02:32.362Z,-5.74
2022-12-18T21:05:36.303Z,-5.66
2022-12-18T21:08:41.505Z,-5.84
2022-12-18T21:12:02.762Z,-6.00
2022-12-18T21:15:09.454Z,-5.95
2022-12-18T21:18:14.585Z,-6.03
2022-12-18T21:21:21.903Z,-5.82
2022-12-18T21:24:32.608Z,-5.95
2022-12-18T21:27:36.760Z,-6.11
2022-12-18T21:30:40.965Z,-6.00
2022-12-18T21:33:46.118Z,-6.05
2022-12-18T21:36:51.941Z,-6.01
2022-12-18T21:39:55.690Z,-6.03
